createdAt,value
2017-10-25T00:00:06.071Z,4.20
2017-10-25T00:02:33.745Z,3.50
2017-10-25T00:07:40.667Z,5.25
2017-10-25T00:10:08.151Z,6.30
2017-10-25T00:12:35.791Z,7.50
2017-10-25T00:15:03.492Z,4.40
2017-10-25T00:17:31.112Z,6.33
2017-10-25T00:19:58.746Z,4.60
2017-10-25T00:22:26.433Z,7.23
2017-10-25T00:24:54.064Z,7.13
2017-10-25T00:27:21.697Z,6.87
2017-10-25T00:29:49.397Z,8.67
2017-10-25T00:32:17.022Z,6.80
2017-10-25T00:34:44.645Z,4.83
2017-10-25T00:37:12.320Z,4.07
2017-10-25T00:39:39.943Z,3.60
2017-10-25T00:42:07.563Z,5.53
2017-10-25T00:44:35.267Z,4.20
2017-10-25T00:47:02.898Z,2.77
2017-10-25T00:49:30.524Z,5.97
2017-10-25T00:51:58.214Z,6.23
2017-10-25T00:54:25.837Z,5.67
2017-10-25T00:56:53.462Z,5.47
2017-10-25T00:59:21.132Z,8.60
2017-10-25T01:01:57.219Z,5.23
2017-10-25T01:04:25.134Z,7.07
2017-10-25T01:06:52.592Z,4.57
2017-10-25T01:09:20.229Z,8.83
2017-10-25T01:11:47.929Z,4.37
2017-10-25T01:14:15.556Z,7.20
2017-10-25T01:16:43.183Z,7.73
2017-10-25T01:19:11.264Z,7.33
2017-10-25T01:21:38.899Z,4.50
2017-10-25T01:24:06.522Z,7.30
2017-10-25T01:26:34.233Z,4.07
2017-10-25T01:29:01.868Z,6.27
2017-10-25T01:31:29.504Z,4.73
2017-10-25T01:36:36.320Z,6.50
2017-10-25T01:39:05.004Z,5.97
2017-10-25T01:41:32.743Z,6.90
2017-10-25T01:44:00.387Z,6.57
2017-10-25T01:46:28.103Z,6.53
2017-10-25T01:48:55.741Z,4.27
2017-10-25T01:51:23.406Z,5.07
2017-10-25T01:53:51.874Z,5.57
2017-10-25T01:56:19.529Z,6.83
2017-10-25T01:58:48.018Z,6.93
2017-10-25T02:01:15.722Z,5.43
2017-10-25T02:03:44.178Z,8.47
2017-10-25T02:06:11.822Z,6.93
2017-10-25T02:08:39.516Z,5.77
2017-10-25T02:11:07.981Z,8.70
2017-10-25T02:13:36.573Z,6.57
2017-10-25T02:16:05.235Z,5.57
2017-10-25T02:18:32.905Z,6.17
2017-10-25T02:21:00.545Z,6.83
2017-10-25T02:23:28.277Z,5.40
2017-10-25T02:25:56.750Z,6.07
2017-10-25T02:28:24.520Z,6.83
2017-10-25T02:30:52.216Z,5.83
2017-10-25T02:33:19.865Z,5.23
2017-10-25T02:38:28.691Z,6.95
2017-10-25T02:40:56.344Z,8.33
2017-10-25T02:43:23.987Z,5.77
2017-10-25T02:45:51.692Z,6.07
2017-10-25T02:48:19.345Z,11.03
2017-10-25T02:50:47.941Z,5.70
2017-10-25T02:53:15.647Z,3.87
2017-10-25T02:55:43.308Z,3.77
2017-10-25T03:00:39.465Z,5.77
2017-10-25T03:03:07.839Z,6.53
2017-10-25T03:05:35.513Z,3.40
2017-10-25T03:08:03.945Z,6.73
2017-10-25T03:10:32.043Z,7.00
2017-10-25T03:13:00.546Z,7.47
2017-10-25T03:15:28.252Z,3.03
2017-10-25T03:17:55.901Z,8.17
2017-10-25T03:20:23.526Z,6.83
2017-10-25T03:22:51.232Z,5.13
2017-10-25T03:25:18.884Z,7.03
2017-10-25T03:27:46.539Z,4.10
2017-10-25T03:30:14.252Z,4.63
2017-10-25T03:32:41.887Z,3.80
2017-10-25T03:35:09.557Z,5.37
2017-10-25T03:37:37.268Z,5.83
2017-10-25T03:42:44.569Z,6.35
2017-10-25T03:45:12.230Z,6.30
2017-10-25T03:47:39.877Z,4.40
2017-10-25T03:50:08.437Z,6.27
2017-10-25T03:52:36.927Z,4.47
2017-10-25T03:55:04.578Z,5.93
2017-10-25T03:57:32.295Z,4.53
2017-10-25T03:59:59.943Z,3.63
2017-10-25T04:02:27.614Z,5.80
2017-10-25T04:04:55.310Z,2.80
2017-10-25T04:07:22.987Z,6.00
2017-10-25T04:09:51.225Z,5.77
2017-10-25T04:12:18.795Z,5.57
2017-10-25T04:14:46.444Z,4.60
2017-10-25T04:17:14.989Z,5.30
2017-10-25T04:19:43.547Z,7.20
2017-10-25T04:22:11.229Z,5.70
2017-10-25T04:24:39.859Z,7.70
2017-10-25T04:27:07.572Z,6.37
2017-10-25T04:32:08.274Z,5.90
2017-10-25T04:34:35.895Z,8.00
2017-10-25T04:37:03.523Z,6.60
2017-10-25T04:39:31.204Z,5.13
2017-10-25T04:41:58.989Z,4.53
2017-10-25T04:44:26.549Z,4.73
2017-10-25T04:46:54.217Z,4.03
2017-10-25T04:49:22.409Z,5.97
2017-10-25T04:51:50.853Z,4.20
2017-10-25T04:54:18.543Z,4.30
2017-10-25T04:56:46.179Z,3.97
2017-10-25T05:02:00.277Z,5.90
2017-10-25T05:04:28.770Z,5.47
2017-10-25T05:06:57.362Z,4.67
2017-10-25T05:09:25.047Z,6.17
2017-10-25T05:11:53.649Z,5.47
2017-10-25T05:14:23.834Z,3.60
2017-10-25T05:16:51.293Z,5.23
2017-10-25T05:19:18.941Z,4.60
2017-10-25T05:21:47.391Z,5.60
2017-10-25T05:24:15.943Z,5.03
2017-10-25T05:26:43.576Z,5.77
2017-10-25T05:29:12.173Z,5.33
2017-10-25T05:31:39.870Z,7.70
2017-10-25T05:34:07.516Z,4.37
2017-10-25T05:36:36.450Z,4.20
2017-10-25T05:39:04.168Z,6.93
2017-10-25T05:41:31.805Z,7.43
2017-10-25T05:43:59.453Z,11.67
2017-10-25T05:46:28.105Z,7.83
2017-10-25T05:48:55.742Z,4.80
2017-10-25T05:51:23.365Z,7.53
2017-10-25T05:53:51.914Z,6.47
2017-10-25T05:56:19.541Z,6.60
2017-10-25T05:58:47.184Z,10.00
2017-10-25T06:01:14.872Z,8.67
2017-10-25T06:03:42.514Z,7.97
2017-10-25T06:06:10.974Z,9.53
2017-10-25T06:08:38.741Z,9.77
2017-10-25T06:11:06.412Z,8.83
2017-10-25T06:16:15.000Z,14.05
2017-10-25T06:18:45.488Z,8.67
2017-10-25T06:21:13.679Z,10.83
2017-10-25T06:23:42.355Z,9.90
2017-10-25T06:26:11.482Z,12.33
2017-10-25T06:28:39.156Z,10.70
2017-10-25T06:31:08.320Z,7.40
2017-10-25T06:33:35.975Z,7.97
2017-10-25T06:36:03.654Z,7.70
2017-10-25T06:38:33.307Z,12.20
2017-10-25T06:41:02.239Z,14.93
2017-10-25T06:43:29.918Z,9.60
2017-10-25T06:45:57.647Z,17.30
2017-10-25T06:48:25.348Z,19.40
2017-10-25T06:50:53.838Z,11.33
2017-10-25T06:53:21.582Z,10.47
2017-10-25T06:55:49.255Z,10.47
2017-10-25T06:58:16.918Z,9.37
2017-10-25T07:00:44.910Z,5.70
2017-10-25T07:03:12.574Z,8.17
2017-10-25T07:05:41.183Z,5.40
2017-10-25T07:08:08.902Z,4.77
2017-10-25T07:10:37.403Z,5.63
2017-10-25T07:13:05.105Z,5.77
2017-10-25T07:15:33.789Z,6.00
2017-10-25T07:18:02.281Z,7.63
2017-10-25T07:20:29.935Z,7.43
2017-10-25T07:22:58.386Z,6.13
2017-10-25T07:25:26.095Z,9.30
2017-10-25T07:27:53.767Z,4.53
2017-10-25T07:30:21.526Z,4.93
2017-10-25T07:32:50.147Z,3.63
2017-10-25T07:35:17.868Z,4.50
2017-10-25T07:37:46.498Z,6.93
2017-10-25T07:42:53.924Z,10.07
2017-10-25T07:45:21.581Z,6.60
2017-10-25T07:47:49.342Z,8.87
2017-10-25T07:50:18.031Z,6.03
2017-10-25T07:52:45.714Z,5.57
2017-10-25T07:57:53.558Z,7.57
2017-10-25T08:00:21.224Z,4.83
2017-10-25T08:02:48.875Z,6.00
2017-10-25T08:05:17.657Z,7.43
2017-10-25T08:07:46.200Z,6.23
2017-10-25T08:10:13.877Z,5.43
2017-10-25T08:12:41.605Z,11.20
2017-10-25T08:15:09.803Z,4.57
2017-10-25T08:17:37.475Z,5.10
2017-10-25T08:20:06.611Z,5.83
2017-10-25T08:22:34.222Z,2.80
2017-10-25T08:27:34.090Z,4.37
2017-10-25T08:30:02.205Z,4.70
2017-10-25T08:32:29.891Z,5.40
2017-10-25T08:34:57.612Z,2.50
2017-10-25T08:37:27.452Z,2.83
2017-10-25T08:39:55.570Z,5.40
2017-10-25T08:42:24.201Z,3.13
2017-10-25T08:44:55.142Z,8.50
2017-10-25T08:47:22.809Z,4.33
2017-10-25T08:49:51.320Z,7.13
2017-10-25T08:52:19.008Z,2.60
2017-10-25T08:54:47.175Z,2.20
2017-10-25T08:57:14.926Z,3.70
2017-10-25T08:59:43.746Z,5.50
2017-10-25T09:02:11.444Z,8.20
2017-10-25T09:04:39.170Z,5.30
2017-10-25T09:07:07.785Z,3.27
2017-10-25T09:09:35.934Z,4.07
2017-10-25T09:12:03.906Z,6.07
2017-10-25T09:14:33.095Z,2.83
2017-10-25T09:17:00.751Z,4.03
2017-10-25T09:19:28.478Z,5.27
2017-10-25T09:24:36.272Z,5.35
2017-10-25T09:27:04.786Z,6.43
2017-10-25T09:29:33.298Z,8.60
2017-10-25T09:34:40.718Z,2.83
2017-10-25T09:37:08.439Z,5.70
2017-10-25T09:39:36.112Z,5.33
2017-10-25T09:42:04.720Z,3.43
2017-10-25T09:44:32.877Z,3.47
2017-10-25T09:47:02.577Z,3.20
2017-10-25T09:49:30.518Z,6.77
2017-10-25T09:51:59.153Z,4.87
2017-10-25T09:54:26.824Z,4.70
2017-10-25T09:56:54.999Z,5.10
2017-10-25T09:59:22.710Z,3.53
2017-10-25T10:01:51.730Z,6.57
2017-10-25T10:04:21.085Z,3.43
2017-10-25T10:06:49.786Z,3.60
2017-10-25T10:09:17.478Z,3.03
2017-10-25T10:11:46.682Z,5.87
2017-10-25T10:14:15.763Z,4.93
2017-10-25T10:16:44.765Z,5.97
2017-10-25T10:19:13.404Z,8.23
2017-10-25T10:21:45.763Z,7.63
2017-10-25T10:24:14.247Z,5.30
2017-10-25T10:26:43.140Z,5.00
2017-10-25T10:29:12.605Z,3.53
2017-10-25T10:31:40.171Z,4.00
2017-10-25T10:36:52.150Z,2.92
2017-10-25T10:39:20.775Z,4.43
2017-10-25T10:41:48.906Z,2.27
2017-10-25T10:44:16.631Z,2.00
2017-10-25T10:46:45.168Z,3.23
2017-10-25T10:49:13.315Z,4.10
2017-10-25T10:51:42.883Z,2.20
2017-10-25T10:54:11.124Z,6.27
2017-10-25T10:56:39.736Z,3.33
2017-10-25T10:59:07.859Z,2.93
2017-10-25T11:01:37.031Z,3.50
2017-10-25T11:04:05.352Z,3.67
2017-10-25T11:06:33.908Z,1.23
2017-10-25T11:09:01.583Z,0.77
2017-10-25T11:11:29.744Z,0.90
2017-10-25T11:14:00.116Z,2.77
2017-10-25T11:16:34.493Z,3.33
2017-10-25T11:19:09.726Z,2.53
2017-10-25T11:24:30.835Z,2.87
2017-10-25T11:27:17.300Z,4.00
2017-10-25T11:29:54.156Z,5.13
2017-10-25T11:35:17.814Z,4.80
2017-10-25T11:40:30.180Z,1.83
2017-10-25T11:42:57.849Z,2.87
2017-10-25T11:45:25.513Z,2.63
2017-10-25T11:47:53.227Z,3.07
2017-10-25T11:50:20.940Z,4.43
2017-10-25T11:52:49.497Z,4.77
2017-10-25T11:55:18.165Z,2.60
2017-10-25T11:57:45.852Z,4.23
2017-10-25T12:00:13.507Z,1.73
2017-10-25T12:02:41.239Z,3.13
2017-10-25T12:05:08.901Z,1.57
2017-10-25T12:07:37.223Z,2.60
2017-10-25T12:10:04.715Z,4.63
2017-10-25T12:12:32.404Z,1.37
2017-10-25T12:15:00.068Z,4.00
2017-10-25T12:23:06.183Z,0.80
2017-10-25T12:37:07.123Z,1.40
2017-10-25T12:39:41.570Z,2.43
2017-10-25T12:42:26.371Z,3.57
2017-10-25T12:45:10.889Z,1.60
2017-10-25T13:05:02.215Z,2.57
2017-10-25T13:07:43.340Z,3.87
2017-10-25T13:10:27.738Z,2.67
2017-10-25T13:16:02.101Z,2.22
2017-10-25T13:38:54.019Z,2.57
2017-10-25T14:18:44.029Z,2.13
2017-10-25T14:38:43.278Z,3.20
2017-10-25T15:23:56.324Z,2.73
2017-10-25T15:26:39.268Z,2.00
2017-10-25T15:31:58.060Z,2.67
2017-10-25T15:34:42.171Z,3.60
2017-10-25T15:37:16.597Z,4.00
2017-10-25T15:48:30.018Z,4.83
2017-10-25T15:50:57.688Z,4.83
2017-10-25T15:53:25.342Z,3.80
2017-10-25T15:55:53.007Z,3.77
2017-10-25T15:58:21.680Z,2.80
2017-10-25T16:00:49.353Z,3.77
2017-10-25T16:03:17.022Z,2.90
2017-10-25T16:05:44.744Z,6.37
2017-10-25T16:08:12.402Z,6.63
2017-10-25T16:10:40.059Z,8.83
2017-10-25T16:13:07.781Z,15.07
2017-10-25T16:15:36.202Z,14.07
2017-10-25T16:18:03.858Z,15.23
2017-10-25T16:20:31.579Z,11.97
2017-10-25T16:40:27.502Z,5.75
2017-10-25T16:43:03.033Z,4.33
2017-10-25T16:45:30.962Z,6.93
2017-10-25T16:47:58.645Z,3.47
2017-10-25T16:50:26.387Z,7.13
2017-10-25T16:52:54.045Z,8.17
2017-10-25T16:55:21.713Z,5.90
2017-10-25T16:57:49.415Z,11.23
2017-10-25T17:00:17.927Z,10.77
2017-10-25T17:02:46.333Z,12.00
2017-10-25T17:05:14.036Z,9.73
2017-10-25T17:07:42.213Z,7.53
2017-10-25T17:10:09.869Z,10.73
2017-10-25T17:12:37.604Z,5.87
2017-10-25T17:15:06.500Z,13.03
2017-10-25T17:17:34.022Z,81.10
2017-10-25T17:20:02.367Z,49.67
2017-10-25T17:25:56.595Z,42.07
2017-10-25T17:28:24.284Z,29.13
2017-10-25T17:30:51.944Z,19.30
2017-10-25T17:33:19.663Z,9.50
2017-10-25T17:35:47.730Z,3.73
2017-10-25T17:38:15.811Z,2.03
2017-10-25T17:40:43.580Z,21.07
2017-10-25T17:43:11.286Z,32.70
2017-10-25T17:51:28.653Z,22.67
2017-10-25T17:53:56.373Z,44.93
2017-10-25T17:56:24.136Z,16.40
2017-10-25T17:58:56.025Z,19.87
2017-10-25T18:01:24.230Z,20.67
2017-10-25T18:03:52.390Z,15.77
2017-10-25T18:06:21.058Z,19.53
2017-10-25T18:08:48.819Z,25.33
2017-10-25T18:11:16.494Z,11.60
2017-10-25T18:13:44.154Z,13.83
2017-10-25T18:16:11.859Z,16.80
2017-10-25T18:18:41.466Z,14.07
2017-10-25T18:21:09.017Z,16.60
2017-10-25T18:23:36.641Z,13.50
2017-10-25T18:26:04.348Z,11.90
2017-10-25T18:28:37.480Z,13.23
2017-10-25T18:33:44.795Z,11.48
2017-10-25T18:36:12.573Z,9.60
2017-10-25T18:38:40.804Z,8.57
2017-10-25T18:41:08.699Z,10.10
2017-10-25T18:43:36.467Z,6.47
2017-10-25T18:46:04.112Z,6.03
2017-10-25T18:48:31.756Z,6.37
2017-10-25T18:50:59.438Z,10.90
2017-10-25T18:53:27.279Z,6.30
2017-10-25T18:55:54.888Z,8.93
2017-10-25T18:58:22.610Z,6.97
2017-10-25T19:00:50.255Z,7.00
2017-10-25T19:03:17.976Z,11.40
2017-10-25T19:05:45.622Z,8.90
2017-10-25T19:08:13.303Z,21.30
2017-10-25T19:10:41.061Z,19.10
2017-10-25T19:13:08.765Z,15.13
2017-10-25T19:15:36.440Z,16.23
2017-10-25T19:18:04.101Z,20.90
2017-10-25T19:20:31.793Z,13.13
2017-10-25T19:22:59.519Z,9.60
2017-10-25T19:25:27.157Z,6.77
2017-10-25T19:27:55.111Z,4.40
2017-10-25T19:30:22.747Z,4.33
2017-10-25T19:32:51.298Z,4.37
2017-10-25T19:35:18.998Z,2.93
2017-10-25T19:37:46.651Z,4.73
2017-10-25T19:42:43.262Z,3.43
2017-10-25T19:45:11.026Z,3.77
2017-10-25T19:47:38.913Z,6.47
2017-10-25T19:50:06.841Z,6.30
2017-10-25T19:52:34.543Z,7.53
2017-10-25T19:57:41.602Z,8.13
2017-10-25T20:00:09.290Z,6.43
2017-10-25T20:02:36.958Z,12.10
2017-10-25T20:05:05.917Z,13.63
2017-10-25T20:07:34.420Z,12.07
2017-10-25T20:10:02.831Z,15.17
2017-10-25T20:12:30.567Z,10.97
2017-10-25T20:14:58.227Z,10.90
2017-10-25T20:17:25.892Z,12.53
2017-10-25T20:19:54.457Z,9.20
2017-10-25T20:22:22.143Z,21.70
2017-10-25T20:24:49.795Z,12.80
2017-10-25T20:27:17.543Z,8.10
2017-10-25T20:32:37.997Z,4.30
2017-10-25T20:35:13.456Z,4.73
2017-10-25T20:37:57.549Z,7.53
2017-10-25T20:49:27.500Z,9.40
2017-10-25T20:51:56.175Z,19.50
2017-10-25T20:54:23.823Z,9.23
2017-10-25T20:56:51.481Z,13.47
2017-10-25T20:59:19.198Z,13.23
2017-10-25T21:01:46.863Z,8.93
2017-10-25T21:04:14.534Z,10.47
2017-10-25T21:06:42.227Z,9.00
2017-10-25T21:09:10.613Z,9.57
2017-10-25T21:11:39.206Z,11.37
2017-10-25T21:14:14.810Z,8.53
2017-10-25T21:16:42.435Z,8.97
2017-10-25T21:19:10.096Z,12.20
2017-10-25T21:21:37.815Z,12.90
2017-10-25T21:26:45.043Z,8.88
2017-10-25T21:29:13.649Z,4.27
2017-10-25T21:31:41.318Z,8.77
2017-10-25T21:34:15.770Z,6.43
2017-10-25T21:36:48.103Z,5.73
2017-10-25T21:45:02.373Z,3.50
2017-10-25T21:47:37.610Z,3.43
2017-10-25T21:50:05.300Z,4.13
2017-10-25T21:52:32.947Z,10.97
2017-10-25T21:55:00.594Z,6.27
2017-10-25T21:57:28.314Z,7.70
2017-10-25T21:59:56.925Z,7.63
2017-10-25T22:02:24.555Z,7.87
2017-10-25T22:04:52.549Z,5.60
2017-10-25T22:07:20.198Z,9.03
2017-10-25T22:09:47.820Z,9.33
2017-10-25T22:12:16.454Z,7.60
2017-10-25T22:14:44.082Z,7.10
2017-10-25T22:17:11.708Z,3.83
2017-10-25T22:19:39.388Z,6.63
2017-10-25T22:22:07.019Z,6.37
2017-10-25T22:24:34.659Z,10.07
2017-10-25T22:27:02.352Z,8.70
2017-10-25T22:29:29.982Z,9.60
2017-10-25T22:31:57.620Z,8.57
2017-10-25T22:34:25.332Z,12.07
2017-10-25T22:36:52.962Z,9.30
2017-10-25T22:39:20.596Z,8.13
2017-10-25T22:41:48.272Z,7.17
2017-10-25T22:44:15.925Z,9.47
2017-10-25T22:46:43.588Z,9.50
2017-10-25T22:49:11.303Z,9.07
2017-10-25T22:51:39.295Z,8.63
2017-10-25T22:56:45.575Z,9.70
2017-10-25T22:59:13.223Z,8.97
2017-10-25T23:01:41.098Z,4.97
2017-10-25T23:04:08.738Z,7.63
2017-10-25T23:06:36.377Z,3.73
2017-10-25T23:09:04.030Z,5.43
2017-10-25T23:11:31.740Z,5.17
2017-10-25T23:13:59.626Z,11.73
2017-10-25T23:16:27.252Z,4.30
2017-10-25T23:18:54.946Z,5.53
2017-10-25T23:21:22.573Z,9.43
2017-10-25T23:23:50.203Z,4.37
2017-10-25T23:26:17.897Z,5.03
2017-10-25T23:28:45.529Z,8.17
2017-10-25T23:31:13.160Z,10.53
2017-10-25T23:33:40.907Z,6.53
2017-10-25T23:36:08.536Z,9.73
2017-10-25T23:38:36.169Z,8.47
2017-10-25T23:41:04.693Z,7.97
2017-10-25T23:43:32.320Z,5.90
2017-10-25T23:45:59.941Z,6.67
2017-10-25T23:48:27.629Z,7.03
2017-10-25T23:50:55.268Z,9.20
2017-10-25T23:53:22.910Z,5.43
2017-10-25T23:55:51.576Z,20.53
2017-10-25T23:58:19.216Z,8.53
